UAE384 OMDB-VTBS
Flight info
| Callsign | UAE384 |
|---|---|
| Flight time | 5h 35m |
| Altitude | 37000 |
| Route | ANVIX L223 TARDI N629 GIDAN N881 RASKI L639 NINIM/N0475F390 L639 BPL A791 CEA L507 IGONI WILLA1C |
| Aircraft | A388/J-SADE2E3FGHIJ3J4J5M1RWXY/LB1D1 |
Departure
| Time | 2026-05-05 07:48 |
|---|---|
| Airport | Dubai International Airport (OMDB) |
Arrival
| Time | 2026-05-05 13:23 |
|---|---|
| Airport | Suvarnabhumi Airport (VTBS) |
| Time | Latitude | Longitude | Altitude | Speed | Heading |
|---|---|---|---|---|---|
| 2026-05-05 06:48 | 25.24192 | 55.37250 | 30 ft | 0 kts | 31° |
| 2026-05-05 07:34 | 25.24191 | 55.37250 | 26 ft | 1 kts | 31° |
| 2026-05-05 07:34 | 25.24176 | 55.37239 | 48 ft | 3 kts | 31° |
| 2026-05-05 07:34 | 25.24158 | 55.37227 | 52 ft | 3 kts | 31° |
| 2026-05-05 07:34 | 25.24144 | 55.37217 | 23 ft | 3 kts | 37° |
| 2026-05-05 07:35 | 25.24131 | 55.37204 | 28 ft | 3 kts | 57° |
| 2026-05-05 07:35 | 25.24125 | 55.37189 | 32 ft | 3 kts | 83° |
| 2026-05-05 07:35 | 25.24126 | 55.37173 | 32 ft | 3 kts | 111° |
| 2026-05-05 07:35 | 25.24135 | 55.37155 | 32 ft | 3 kts | 122° |
| 2026-05-05 07:36 | 25.24145 | 55.37136 | 32 ft | 3 kts | 122° |
| 2026-05-05 07:36 | 25.24154 | 55.37121 | 32 ft | 0 kts | 122° |
| 2026-05-05 07:39 | 25.24146 | 55.37135 | 28 ft | 1 kts | 122° |
| 2026-05-05 07:39 | 25.24129 | 55.37166 | 32 ft | 8 kts | 121° |
| 2026-05-05 07:39 | 25.24095 | 55.37227 | 29 ft | 12 kts | 121° |
| 2026-05-05 07:39 | 25.24046 | 55.37316 | 30 ft | 15 kts | 122° |
| 2026-05-05 07:40 | 25.23985 | 55.37425 | 32 ft | 18 kts | 115° |
| 2026-05-05 07:40 | 25.23970 | 55.37531 | 27 ft | 13 kts | 77° |
| 2026-05-05 07:40 | 25.24025 | 55.37615 | 30 ft | 15 kts | 32° |
| 2026-05-05 07:40 | 25.24116 | 55.37676 | 30 ft | 16 kts | 32° |
| 2026-05-05 07:41 | 25.24215 | 55.37743 | 30 ft | 17 kts | 31° |
| 2026-05-05 07:41 | 25.24319 | 55.37813 | 26 ft | 18 kts | 33° |
| 2026-05-05 07:41 | 25.24421 | 55.37890 | 29 ft | 17 kts | 34° |
| 2026-05-05 07:41 | 25.24520 | 55.37965 | 29 ft | 18 kts | 34° |
| 2026-05-05 07:42 | 25.24612 | 55.38033 | 28 ft | 10 kts | 31° |
| 2026-05-05 07:42 | 25.24628 | 55.38044 | 28 ft | 0 kts | 31° |
| 2026-05-05 07:46 | 25.24629 | 55.38044 | 28 ft | 1 kts | 31° |
| 2026-05-05 07:46 | 25.24650 | 55.38058 | 29 ft | 6 kts | 31° |
| 2026-05-05 07:46 | 25.24692 | 55.38088 | 30 ft | 8 kts | 32° |
| 2026-05-05 07:47 | 25.24739 | 55.38110 | 31 ft | 6 kts | 348° |
| 2026-05-05 07:47 | 25.24774 | 55.38080 | 31 ft | 8 kts | 304° |
| 2026-05-05 07:47 | 25.24822 | 55.37995 | 30 ft | 26 kts | 302° |
| 2026-05-05 07:47 | 25.25056 | 55.37575 | 32 ft | 100 kts | 301° |
| 2026-05-05 07:48 | 25.25522 | 55.36734 | 29 ft | 153 kts | 301° |
| 2026-05-05 07:48 | 25.26124 | 55.35627 | 114 ft | 177 kts | 302° |
| 2026-05-05 07:48 | 25.26755 | 55.34487 | 597 ft | 173 kts | 303° |
| 2026-05-05 07:48 | 25.27407 | 55.33336 | 924 ft | 181 kts | 302° |
| 2026-05-05 07:49 | 25.28086 | 55.32128 | 1095 ft | 198 kts | 302° |
| 2026-05-05 07:49 | 25.28834 | 55.30783 | 1194 ft | 211 kts | 300° |
| 2026-05-05 07:49 | 25.29227 | 55.29187 | 1294 ft | 224 kts | 267° |
| 2026-05-05 07:49 | 25.28776 | 55.27499 | 1462 ft | 239 kts | 242° |
| 2026-05-05 07:50 | 25.28023 | 55.25837 | 2017 ft | 245 kts | 242° |
| 2026-05-05 07:50 | 25.27530 | 55.24706 | 2417 ft | 247 kts | 243° |
| 2026-05-05 07:50 | 25.26787 | 55.22971 | 3123 ft | 247 kts | 244° |
| 2026-05-05 07:50 | 25.26064 | 55.21268 | 3763 ft | 249 kts | 244° |
| 2026-05-05 07:51 | 25.25086 | 55.19621 | 4153 ft | 264 kts | 221° |
| 2026-05-05 07:51 | 25.23473 | 55.18593 | 4423 ft | 280 kts | 193° |
| 2026-05-05 07:51 | 25.21542 | 55.18505 | 4994 ft | 281 kts | 166° |
| 2026-05-05 07:51 | 25.19775 | 55.19380 | 5599 ft | 282 kts | 140° |
| 2026-05-05 07:52 | 25.18534 | 55.21035 | 6203 ft | 282 kts | 114° |
| 2026-05-05 07:52 | 25.17848 | 55.23067 | 6817 ft | 284 kts | 107° |
| 2026-05-05 07:52 | 25.17186 | 55.25126 | 7449 ft | 285 kts | 111° |
| 2026-05-05 07:52 | 25.16363 | 55.27118 | 8139 ft | 286 kts | 116° |
| 2026-05-05 07:53 | 25.15413 | 55.29029 | 8885 ft | 285 kts | 118° |
| 2026-05-05 07:53 | 25.14380 | 55.30920 | 9504 ft | 289 kts | 120° |
| 2026-05-05 07:53 | 25.13303 | 55.32814 | 10060 ft | 293 kts | 121° |
| 2026-05-05 07:53 | 25.12182 | 55.34765 | 10299 ft | 311 kts | 121° |
| 2026-05-05 07:54 | 25.10989 | 55.36840 | 10457 ft | 328 kts | 121° |
| 2026-05-05 07:54 | 25.09736 | 55.39022 | 10621 ft | 344 kts | 121° |
| 2026-05-05 07:54 | 25.08443 | 55.41274 | 11095 ft | 350 kts | 121° |
| 2026-05-05 07:54 | 25.07133 | 55.43558 | 11604 ft | 354 kts | 121° |
| 2026-05-05 07:55 | 25.05817 | 55.45852 | 12125 ft | 359 kts | 122° |
| 2026-05-05 07:55 | 25.04463 | 55.48212 | 12609 ft | 365 kts | 122° |
| 2026-05-05 07:55 | 25.03107 | 55.50573 | 13168 ft | 368 kts | 122° |
| 2026-05-05 07:55 | 25.01733 | 55.52966 | 13670 ft | 372 kts | 122° |
| 2026-05-05 07:56 | 25.00336 | 55.55399 | 14147 ft | 376 kts | 123° |
| 2026-05-05 07:56 | 24.98933 | 55.57839 | 14723 ft | 377 kts | 123° |
| 2026-05-05 07:56 | 24.97520 | 55.60295 | 15215 ft | 381 kts | 123° |
| 2026-05-05 07:56 | 24.96098 | 55.62766 | 15712 ft | 384 kts | 123° |
| 2026-05-05 07:57 | 24.94665 | 55.65256 | 16264 ft | 386 kts | 123° |
| 2026-05-05 07:57 | 24.93218 | 55.67768 | 16745 ft | 390 kts | 123° |
| 2026-05-05 07:57 | 24.91759 | 55.70300 | 17261 ft | 393 kts | 123° |
| 2026-05-05 07:57 | 24.90291 | 55.72847 | 17759 ft | 396 kts | 123° |
| 2026-05-05 07:58 | 24.88807 | 55.75417 | 18227 ft | 399 kts | 123° |
| 2026-05-05 07:58 | 24.87315 | 55.78004 | 18642 ft | 402 kts | 123° |
| 2026-05-05 07:58 | 24.85810 | 55.80610 | 19019 ft | 406 kts | 123° |
| 2026-05-05 07:58 | 24.84290 | 55.83239 | 19468 ft | 408 kts | 123° |
| 2026-05-05 07:59 | 24.82761 | 55.85884 | 19872 ft | 410 kts | 123° |
| 2026-05-05 07:59 | 24.81223 | 55.88543 | 20307 ft | 413 kts | 123° |
| 2026-05-05 07:59 | 24.79698 | 55.91177 | 20734 ft | 415 kts | 123° |
| 2026-05-05 07:59 | 24.78002 | 55.93760 | 21118 ft | 417 kts | 131° |
| 2026-05-05 08:00 | 24.76007 | 55.96072 | 21529 ft | 418 kts | 139° |
| 2026-05-05 08:00 | 24.73857 | 55.98241 | 21927 ft | 421 kts | 139° |
| 2026-05-05 08:00 | 24.71709 | 56.00439 | 22335 ft | 423 kts | 138° |
| 2026-05-05 08:00 | 24.69556 | 56.02656 | 22740 ft | 426 kts | 138° |
| 2026-05-05 08:01 | 24.67384 | 56.04894 | 23105 ft | 429 kts | 138° |
| 2026-05-05 08:01 | 24.65209 | 56.07138 | 23503 ft | 430 kts | 138° |
| 2026-05-05 08:01 | 24.63022 | 56.09393 | 23867 ft | 431 kts | 138° |
| 2026-05-05 08:01 | 24.60820 | 56.11660 | 24166 ft | 435 kts | 138° |
| 2026-05-05 08:02 | 24.58610 | 56.13934 | 24460 ft | 437 kts | 139° |
| 2026-05-05 08:02 | 24.56449 | 56.16296 | 24777 ft | 441 kts | 133° |
| 2026-05-05 08:02 | 24.54448 | 56.18872 | 25070 ft | 444 kts | 132° |
| 2026-05-05 08:02 | 24.52430 | 56.21457 | 25370 ft | 447 kts | 132° |
| 2026-05-05 08:03 | 24.50390 | 56.24056 | 25666 ft | 450 kts | 133° |
| 2026-05-05 08:03 | 24.48364 | 56.26633 | 25981 ft | 452 kts | 133° |
| 2026-05-05 08:03 | 24.46301 | 56.29256 | 26323 ft | 454 kts | 133° |
| 2026-05-05 08:03 | 24.44227 | 56.31894 | 26574 ft | 459 kts | 133° |
| 2026-05-05 08:04 | 24.42132 | 56.34556 | 26855 ft | 462 kts | 133° |
| 2026-05-05 08:04 | 24.40026 | 56.37231 | 27186 ft | 464 kts | 133° |
| 2026-05-05 08:04 | 24.37908 | 56.39920 | 27502 ft | 468 kts | 133° |
| 2026-05-05 08:04 | 24.35773 | 56.42628 | 27837 ft | 471 kts | 133° |
| 2026-05-05 08:05 | 24.33632 | 56.45343 | 28180 ft | 474 kts | 133° |
| 2026-05-05 08:05 | 24.31467 | 56.48088 | 28527 ft | 477 kts | 133° |
| 2026-05-05 08:05 | 24.29327 | 56.50903 | 28883 ft | 482 kts | 128° |
| 2026-05-05 08:05 | 24.27361 | 56.53890 | 29246 ft | 485 kts | 128° |
| 2026-05-05 08:06 | 24.25374 | 56.56901 | 29617 ft | 489 kts | 128° |
| 2026-05-05 08:06 | 24.23370 | 56.59925 | 29944 ft | 493 kts | 128° |
| 2026-05-05 08:06 | 24.21344 | 56.62975 | 30274 ft | 496 kts | 128° |
| 2026-05-05 08:06 | 24.19308 | 56.66037 | 30660 ft | 499 kts | 128° |
| 2026-05-05 08:07 | 24.17258 | 56.69120 | 31000 ft | 502 kts | 128° |
| 2026-05-05 08:07 | 24.15194 | 56.72220 | 31344 ft | 505 kts | 128° |
| 2026-05-05 08:07 | 24.13119 | 56.75336 | 31683 ft | 508 kts | 128° |
| 2026-05-05 08:07 | 24.11032 | 56.78469 | 32010 ft | 511 kts | 128° |
| 2026-05-05 08:08 | 24.08930 | 56.81622 | 32349 ft | 514 kts | 128° |
| 2026-05-05 08:08 | 24.06813 | 56.84795 | 32671 ft | 517 kts | 128° |
| 2026-05-05 08:08 | 24.04681 | 56.87989 | 32986 ft | 521 kts | 128° |
| 2026-05-05 08:08 | 24.02539 | 56.91195 | 33302 ft | 524 kts | 128° |
| 2026-05-05 08:09 | 24.00382 | 56.94419 | 33632 ft | 527 kts | 128° |
| 2026-05-05 08:09 | 23.98214 | 56.97656 | 33920 ft | 530 kts | 128° |
| 2026-05-05 08:09 | 23.96031 | 57.00915 | 34236 ft | 532 kts | 128° |
| 2026-05-05 08:09 | 23.93869 | 57.04139 | 34551 ft | 533 kts | 129° |
| 2026-05-05 08:10 | 23.91644 | 57.07456 | 34936 ft | 533 kts | 129° |
| 2026-05-05 08:10 | 23.89484 | 57.10676 | 35392 ft | 532 kts | 129° |
| 2026-05-05 08:10 | 23.87296 | 57.13934 | 35798 ft | 532 kts | 129° |
| 2026-05-05 08:10 | 23.85114 | 57.17183 | 36258 ft | 529 kts | 129° |
| 2026-05-05 08:11 | 23.82939 | 57.20419 | 36729 ft | 528 kts | 129° |
| 2026-05-05 08:11 | 23.80759 | 57.23659 | 36833 ft | 530 kts | 129° |
| 2026-05-05 08:11 | 23.76401 | 57.30131 | 36804 ft | 529 kts | 129° |
| 2026-05-05 08:12 | 23.72033 | 57.36610 | 36810 ft | 530 kts | 129° |
| 2026-05-05 08:12 | 23.67507 | 57.42938 | 36812 ft | 530 kts | 132° |
| 2026-05-05 08:13 | 23.62891 | 57.49197 | 36819 ft | 528 kts | 131° |
| 2026-05-05 08:13 | 23.58321 | 57.55447 | 36811 ft | 526 kts | 131° |
| 2026-05-05 08:14 | 23.53780 | 57.61674 | 36793 ft | 525 kts | 131° |
| 2026-05-05 08:14 | 23.49241 | 57.67893 | 36804 ft | 524 kts | 131° |
| 2026-05-05 08:15 | 23.44699 | 57.74105 | 36790 ft | 523 kts | 131° |
| 2026-05-05 08:15 | 23.40164 | 57.80296 | 36812 ft | 523 kts | 131° |
| 2026-05-05 08:16 | 23.35626 | 57.86483 | 36791 ft | 523 kts | 131° |
| 2026-05-05 08:16 | 23.31089 | 57.92660 | 36788 ft | 522 kts | 131° |
| 2026-05-05 08:17 | 23.26557 | 57.98830 | 36784 ft | 523 kts | 131° |
| 2026-05-05 08:17 | 23.22238 | 58.05211 | 36794 ft | 524 kts | 127° |
| 2026-05-05 08:18 | 23.18124 | 58.11748 | 36796 ft | 524 kts | 127° |
| 2026-05-05 08:18 | 23.13996 | 58.18277 | 36802 ft | 525 kts | 127° |
| 2026-05-05 08:19 | 23.09881 | 58.24777 | 36800 ft | 526 kts | 127° |
| 2026-05-05 08:19 | 23.05724 | 58.31339 | 36817 ft | 527 kts | 126° |
| 2026-05-05 08:20 | 23.03957 | 58.34764 | 36836 ft | 530 kts | 115° |
| 2026-05-05 08:20 | 23.02709 | 58.38603 | 36835 ft | 533 kts | 105° |
| 2026-05-05 08:20 | 23.02093 | 58.42551 | 36841 ft | 534 kts | 94° |
| 2026-05-05 08:20 | 23.02074 | 58.46572 | 36851 ft | 534 kts | 87° |
| 2026-05-05 08:21 | 23.02371 | 58.54643 | 36837 ft | 535 kts | 88° |
| 2026-05-05 08:21 | 23.02634 | 58.62701 | 36834 ft | 534 kts | 88° |
| 2026-05-05 08:22 | 23.02896 | 58.70759 | 36829 ft | 534 kts | 88° |
| 2026-05-05 08:22 | 23.03154 | 58.78806 | 36826 ft | 533 kts | 88° |
| 2026-05-05 08:23 | 23.03409 | 58.86856 | 36820 ft | 533 kts | 88° |
| 2026-05-05 08:23 | 23.03659 | 58.94894 | 36821 ft | 533 kts | 88° |
| 2026-05-05 08:24 | 23.03905 | 59.02942 | 36831 ft | 533 kts | 88° |
| 2026-05-05 08:24 | 23.04143 | 59.10968 | 36807 ft | 532 kts | 88° |
| 2026-05-05 08:25 | 23.04376 | 59.18999 | 36803 ft | 532 kts | 88° |
| 2026-05-05 08:25 | 23.04606 | 59.27044 | 36794 ft | 533 kts | 88° |
| 2026-05-05 08:26 | 23.04832 | 59.35087 | 36809 ft | 533 kts | 88° |
| 2026-05-05 08:26 | 23.05015 | 59.43144 | 36804 ft | 534 kts | 89° |
| 2026-05-05 08:27 | 23.05124 | 59.51152 | 36799 ft | 534 kts | 89° |
| 2026-05-05 08:27 | 23.05239 | 59.59273 | 36798 ft | 534 kts | 89° |
| 2026-05-05 08:28 | 23.05356 | 59.67272 | 36812 ft | 533 kts | 89° |
| 2026-05-05 08:28 | 23.05471 | 59.75326 | 36805 ft | 533 kts | 89° |
| 2026-05-05 08:29 | 23.05582 | 59.83360 | 36810 ft | 532 kts | 89° |
| 2026-05-05 08:30 | 23.05739 | 59.95385 | 36799 ft | 531 kts | 89° |
| 2026-05-05 08:30 | 23.05838 | 60.03403 | 36798 ft | 530 kts | 89° |
| 2026-05-05 08:31 | 23.05933 | 60.11409 | 36800 ft | 530 kts | 89° |
| 2026-05-05 08:31 | 23.06024 | 60.19408 | 36790 ft | 530 kts | 89° |
| 2026-05-05 08:32 | 23.06111 | 60.27430 | 36790 ft | 531 kts | 89° |
| 2026-05-05 08:32 | 23.06194 | 60.35445 | 36801 ft | 531 kts | 89° |
| 2026-05-05 08:33 | 23.06273 | 60.43476 | 36813 ft | 532 kts | 89° |
| 2026-05-05 08:33 | 23.06348 | 60.51510 | 36807 ft | 532 kts | 89° |
| 2026-05-05 08:34 | 23.06407 | 60.58184 | 36812 ft | 533 kts | 89° |
| 2026-05-05 08:34 | 23.06475 | 60.66232 | 36818 ft | 533 kts | 89° |
| 2026-05-05 08:35 | 23.06540 | 60.74278 | 36822 ft | 533 kts | 89° |
| 2026-05-05 08:35 | 23.06602 | 60.82321 | 36826 ft | 533 kts | 89° |
| 2026-05-05 08:36 | 23.06659 | 60.90378 | 36826 ft | 533 kts | 89° |
| 2026-05-05 08:36 | 23.06712 | 60.98427 | 36824 ft | 533 kts | 89° |
| 2026-05-05 08:37 | 23.06761 | 61.06465 | 36814 ft | 532 kts | 89° |
| 2026-05-05 08:37 | 23.06805 | 61.14480 | 36828 ft | 531 kts | 89° |
| 2026-05-05 08:38 | 23.06846 | 61.22511 | 36828 ft | 531 kts | 89° |
| 2026-05-05 08:38 | 23.06882 | 61.30516 | 36823 ft | 530 kts | 89° |
| 2026-05-05 08:39 | 23.06915 | 61.38525 | 36823 ft | 530 kts | 89° |
| 2026-05-05 08:39 | 23.06943 | 61.46523 | 36821 ft | 530 kts | 89° |
| 2026-05-05 08:40 | 23.06967 | 61.54483 | 36824 ft | 530 kts | 89° |
| 2026-05-05 08:40 | 23.06985 | 61.62490 | 36826 ft | 530 kts | 89° |
| 2026-05-05 08:41 | 23.07000 | 61.70505 | 36826 ft | 531 kts | 89° |
| 2026-05-05 08:41 | 23.07009 | 61.78529 | 36824 ft | 531 kts | 90° |
| 2026-05-05 08:42 | 23.07014 | 61.86541 | 36835 ft | 531 kts | 90° |
| 2026-05-05 08:42 | 23.07016 | 61.94569 | 36826 ft | 532 kts | 89° |
| 2026-05-05 08:43 | 23.07014 | 62.02594 | 36830 ft | 532 kts | 90° |
| 2026-05-05 08:43 | 23.07007 | 62.10629 | 36834 ft | 532 kts | 90° |
| 2026-05-05 08:44 | 23.06996 | 62.18660 | 36832 ft | 532 kts | 90° |
| 2026-05-05 08:44 | 23.06981 | 62.26693 | 36831 ft | 532 kts | 90° |
| 2026-05-05 08:45 | 23.06962 | 62.34725 | 36833 ft | 532 kts | 90° |
| 2026-05-05 08:45 | 23.06939 | 62.42718 | 36823 ft | 532 kts | 90° |
| 2026-05-05 08:46 | 23.06912 | 62.50752 | 36821 ft | 532 kts | 90° |
| 2026-05-05 08:46 | 23.06881 | 62.58791 | 36842 ft | 531 kts | 89° |
| 2026-05-05 08:47 | 23.06846 | 62.66813 | 36841 ft | 531 kts | 89° |
| 2026-05-05 08:47 | 23.06807 | 62.74826 | 36836 ft | 531 kts | 89° |
| 2026-05-05 08:48 | 23.06763 | 62.82837 | 36832 ft | 530 kts | 90° |
| 2026-05-05 08:48 | 23.06716 | 62.90799 | 36822 ft | 530 kts | 90° |
| 2026-05-05 08:49 | 23.06665 | 62.98793 | 36821 ft | 530 kts | 90° |
| 2026-05-05 08:49 | 23.06610 | 63.06820 | 36820 ft | 531 kts | 90° |
| 2026-05-05 08:50 | 23.06551 | 63.14842 | 36831 ft | 531 kts | 90° |
| 2026-05-05 08:50 | 23.06487 | 63.22868 | 36823 ft | 532 kts | 90° |
| 2026-05-05 08:51 | 23.06419 | 63.30899 | 36826 ft | 532 kts | 90° |
| 2026-05-05 08:51 | 23.06348 | 63.38936 | 36822 ft | 532 kts | 90° |
| 2026-05-05 08:52 | 23.06272 | 63.46970 | 36838 ft | 532 kts | 90° |
| 2026-05-05 08:52 | 23.06192 | 63.55010 | 36830 ft | 532 kts | 90° |
| 2026-05-05 08:53 | 23.06108 | 63.63044 | 36821 ft | 532 kts | 90° |
| 2026-05-05 08:53 | 23.06020 | 63.71072 | 36821 ft | 532 kts | 90° |
| 2026-05-05 08:54 | 23.05928 | 63.79100 | 36826 ft | 532 kts | 90° |
| 2026-05-05 08:54 | 23.05770 | 63.87130 | 36822 ft | 532 kts | 94° |
| 2026-05-05 08:55 | 23.04969 | 63.95109 | 36816 ft | 532 kts | 96° |
| 2026-05-05 08:55 | 23.04162 | 64.03107 | 36818 ft | 532 kts | 96° |
| 2026-05-05 08:56 | 23.03351 | 64.11104 | 36820 ft | 533 kts | 96° |
| 2026-05-05 08:56 | 23.02530 | 64.19104 | 36817 ft | 533 kts | 96° |
| 2026-05-05 08:57 | 23.01709 | 64.27050 | 36823 ft | 533 kts | 96° |
| 2026-05-05 08:57 | 23.00879 | 64.35051 | 36821 ft | 534 kts | 96° |
| 2026-05-05 08:58 | 23.00044 | 64.43061 | 36820 ft | 534 kts | 96° |
| 2026-05-05 08:58 | 22.99205 | 64.51068 | 36820 ft | 534 kts | 96° |
| 2026-05-05 08:59 | 22.98361 | 64.59082 | 36815 ft | 534 kts | 96° |
| 2026-05-05 08:59 | 22.97514 | 64.67079 | 36815 ft | 534 kts | 96° |
| 2026-05-05 09:00 | 22.96663 | 64.75083 | 36818 ft | 534 kts | 96° |
| 2026-05-05 09:00 | 22.95852 | 64.83092 | 36821 ft | 533 kts | 92° |
| 2026-05-05 09:01 | 22.95830 | 64.91127 | 36817 ft | 533 kts | 88° |
| 2026-05-05 09:01 | 22.95883 | 64.99169 | 36825 ft | 533 kts | 88° |
| 2026-05-05 09:02 | 22.95925 | 65.07203 | 36824 ft | 532 kts | 88° |
| 2026-05-05 09:02 | 22.95964 | 65.15231 | 36820 ft | 532 kts | 88° |
| 2026-05-05 09:03 | 22.95999 | 65.23244 | 36824 ft | 529 kts | 88° |
| 2026-05-05 09:03 | 22.96030 | 65.31239 | 36825 ft | 531 kts | 88° |
| 2026-05-05 09:04 | 22.96058 | 65.39195 | 36820 ft | 531 kts | 88° |
| 2026-05-05 09:04 | 22.96082 | 65.47259 | 36826 ft | 531 kts | 88° |
| 2026-05-05 09:05 | 22.96101 | 65.55211 | 36820 ft | 531 kts | 88° |
| 2026-05-05 09:05 | 22.96116 | 65.63229 | 36821 ft | 531 kts | 88° |
| 2026-05-05 09:06 | 22.96128 | 65.71236 | 36822 ft | 531 kts | 88° |
| 2026-05-05 09:06 | 22.96135 | 65.79245 | 36826 ft | 531 kts | 88° |
| 2026-05-05 09:07 | 22.96138 | 65.87264 | 36826 ft | 531 kts | 88° |
| 2026-05-05 09:07 | 22.96137 | 65.95279 | 36826 ft | 531 kts | 88° |
| 2026-05-05 09:08 | 22.96133 | 66.03297 | 36825 ft | 531 kts | 88° |
| 2026-05-05 09:08 | 22.96124 | 66.11310 | 36827 ft | 531 kts | 88° |
| 2026-05-05 09:09 | 22.96111 | 66.19338 | 36824 ft | 532 kts | 88° |
| 2026-05-05 09:09 | 22.96094 | 66.27355 | 36822 ft | 532 kts | 88° |
| 2026-05-05 09:10 | 22.96073 | 66.35381 | 36819 ft | 532 kts | 89° |
| 2026-05-05 09:10 | 22.96049 | 66.43387 | 36820 ft | 532 kts | 89° |
| 2026-05-05 09:11 | 22.96019 | 66.51416 | 36824 ft | 532 kts | 89° |
| 2026-05-05 09:11 | 22.95986 | 66.59448 | 36826 ft | 533 kts | 89° |
| 2026-05-05 09:12 | 22.95950 | 66.67429 | 36821 ft | 533 kts | 89° |
| 2026-05-05 09:12 | 22.95908 | 66.75479 | 36823 ft | 533 kts | 89° |
| 2026-05-05 09:13 | 22.95863 | 66.83513 | 36823 ft | 533 kts | 89° |
| 2026-05-05 09:13 | 22.95815 | 66.91499 | 36827 ft | 533 kts | 89° |
| 2026-05-05 09:14 | 22.95773 | 66.99543 | 36823 ft | 533 kts | 88° |
| 2026-05-05 09:14 | 22.95799 | 67.07582 | 36825 ft | 532 kts | 88° |
| 2026-05-05 09:15 | 22.95824 | 67.15594 | 36836 ft | 531 kts | 88° |
| 2026-05-05 09:15 | 22.95837 | 67.23598 | 36833 ft | 530 kts | 88° |
| 2026-05-05 09:16 | 22.95844 | 67.31583 | 36828 ft | 529 kts | 88° |
| 2026-05-05 09:16 | 22.95847 | 67.39560 | 36822 ft | 528 kts | 88° |
| 2026-05-05 09:17 | 22.95846 | 67.47496 | 36818 ft | 528 kts | 88° |
| 2026-05-05 09:17 | 22.95842 | 67.55455 | 36819 ft | 527 kts | 88° |
| 2026-05-05 09:18 | 22.95833 | 67.63412 | 36811 ft | 527 kts | 88° |
| 2026-05-05 09:18 | 22.95820 | 67.71345 | 36813 ft | 527 kts | 88° |
| 2026-05-05 09:19 | 22.95806 | 67.77948 | 36815 ft | 528 kts | 88° |
| 2026-05-05 09:19 | 22.95786 | 67.85922 | 36817 ft | 528 kts | 88° |
| 2026-05-05 09:20 | 22.95782 | 67.93889 | 36814 ft | 528 kts | 88° |
| 2026-05-05 09:20 | 22.95797 | 68.01870 | 36823 ft | 529 kts | 88° |
| 2026-05-05 09:21 | 22.95803 | 68.09845 | 36825 ft | 529 kts | 88° |
| 2026-05-05 09:21 | 22.95802 | 68.17823 | 36825 ft | 529 kts | 88° |
| 2026-05-05 09:22 | 22.95797 | 68.25748 | 36826 ft | 529 kts | 88° |
| 2026-05-05 09:22 | 22.95789 | 68.33789 | 36827 ft | 529 kts | 88° |
| 2026-05-05 09:23 | 22.95558 | 68.41757 | 36824 ft | 529 kts | 92° |
| 2026-05-05 09:23 | 22.95095 | 68.49737 | 36826 ft | 529 kts | 92° |
| 2026-05-05 09:24 | 22.94640 | 68.57709 | 36824 ft | 530 kts | 92° |
| 2026-05-05 09:24 | 22.94178 | 68.65685 | 36826 ft | 530 kts | 92° |
| 2026-05-05 09:25 | 22.93709 | 68.73665 | 36825 ft | 530 kts | 92° |
| 2026-05-05 09:25 | 22.93237 | 68.81642 | 36826 ft | 530 kts | 92° |
| 2026-05-05 09:26 | 22.92761 | 68.89621 | 36824 ft | 530 kts | 92° |
| 2026-05-05 09:26 | 22.92282 | 68.97592 | 36847 ft | 529 kts | 92° |
| 2026-05-05 09:27 | 22.91798 | 69.05555 | 36840 ft | 528 kts | 92° |
| 2026-05-05 09:27 | 22.91311 | 69.13506 | 36835 ft | 528 kts | 92° |
| 2026-05-05 09:28 | 22.90822 | 69.21442 | 36827 ft | 527 kts | 92° |
| 2026-05-05 09:28 | 22.90328 | 69.29379 | 36831 ft | 527 kts | 92° |
| 2026-05-05 09:29 | 22.89830 | 69.37314 | 36831 ft | 527 kts | 92° |
| 2026-05-05 09:29 | 22.89329 | 69.45247 | 36832 ft | 527 kts | 92° |
| 2026-05-05 09:30 | 22.88826 | 69.53137 | 36844 ft | 528 kts | 92° |
| 2026-05-05 09:30 | 22.88317 | 69.61068 | 36841 ft | 528 kts | 92° |
| 2026-05-05 09:31 | 22.87802 | 69.69030 | 36844 ft | 529 kts | 92° |
| 2026-05-05 09:31 | 22.87318 | 69.76995 | 36846 ft | 529 kts | 92° |
| 2026-05-05 09:32 | 22.86868 | 69.84965 | 36844 ft | 529 kts | 92° |
| 2026-05-05 09:32 | 22.86406 | 69.92938 | 36845 ft | 530 kts | 92° |
| 2026-05-05 09:33 | 22.85936 | 70.00911 | 36846 ft | 530 kts | 92° |
| 2026-05-05 09:33 | 22.85461 | 70.08885 | 36849 ft | 530 kts | 92° |
| 2026-05-05 09:34 | 22.84982 | 70.16871 | 36858 ft | 531 kts | 92° |
| 2026-05-05 09:34 | 22.84499 | 70.24853 | 36859 ft | 531 kts | 92° |
| 2026-05-05 09:35 | 22.84012 | 70.32840 | 36855 ft | 532 kts | 92° |
| 2026-05-05 09:35 | 22.83272 | 70.44844 | 36862 ft | 532 kts | 92° |
| 2026-05-05 09:36 | 22.82774 | 70.52841 | 36870 ft | 531 kts | 93° |
| 2026-05-05 09:36 | 22.82271 | 70.60839 | 36864 ft | 531 kts | 93° |
| 2026-05-05 09:37 | 22.81766 | 70.68824 | 36862 ft | 531 kts | 93° |
| 2026-05-05 09:37 | 22.81256 | 70.76811 | 36853 ft | 531 kts | 93° |
| 2026-05-05 09:38 | 22.81130 | 70.84798 | 36853 ft | 529 kts | 83° |
| 2026-05-05 09:38 | 22.82252 | 70.92664 | 36838 ft | 528 kts | 79° |
| 2026-05-05 09:39 | 22.83430 | 71.00516 | 36839 ft | 528 kts | 79° |
| 2026-05-05 09:39 | 22.84601 | 71.08381 | 36837 ft | 529 kts | 79° |
| 2026-05-05 09:40 | 22.85764 | 71.16194 | 36832 ft | 529 kts | 79° |
| 2026-05-05 09:40 | 22.86935 | 71.24079 | 36833 ft | 529 kts | 79° |
| 2026-05-05 09:41 | 22.88100 | 71.31956 | 36827 ft | 529 kts | 79° |
| 2026-05-05 09:41 | 22.89261 | 71.39830 | 36826 ft | 529 kts | 79° |
| 2026-05-05 09:42 | 22.90420 | 71.47712 | 36823 ft | 529 kts | 79° |
| 2026-05-05 09:42 | 22.91571 | 71.55578 | 36830 ft | 529 kts | 79° |
| 2026-05-05 09:43 | 22.92720 | 71.63451 | 36819 ft | 530 kts | 79° |
| 2026-05-05 09:43 | 22.93870 | 71.71357 | 36815 ft | 530 kts | 79° |
| 2026-05-05 09:44 | 22.95006 | 71.79202 | 36816 ft | 530 kts | 79° |
| 2026-05-05 09:44 | 22.96147 | 71.87102 | 36818 ft | 530 kts | 79° |
| 2026-05-05 09:45 | 22.97282 | 71.94999 | 36810 ft | 531 kts | 79° |
| 2026-05-05 09:45 | 22.98419 | 72.02927 | 36802 ft | 531 kts | 79° |
| 2026-05-05 09:46 | 22.99550 | 72.10850 | 36807 ft | 531 kts | 79° |
| 2026-05-05 09:46 | 23.00676 | 72.18768 | 36809 ft | 531 kts | 79° |
| 2026-05-05 09:47 | 23.01801 | 72.26703 | 36811 ft | 531 kts | 79° |
| 2026-05-05 09:47 | 23.02923 | 72.34641 | 36801 ft | 532 kts | 79° |
| 2026-05-05 09:48 | 23.04040 | 72.42583 | 36801 ft | 533 kts | 79° |
| 2026-05-05 09:48 | 23.05155 | 72.50534 | 36802 ft | 533 kts | 79° |
| 2026-05-05 09:49 | 23.06267 | 72.58496 | 36800 ft | 533 kts | 79° |
| 2026-05-05 09:49 | 23.07080 | 72.66514 | 36795 ft | 535 kts | 85° |
| 2026-05-05 09:50 | 23.07522 | 72.74581 | 36802 ft | 536 kts | 84° |
| 2026-05-05 09:50 | 23.07984 | 72.82673 | 36801 ft | 536 kts | 84° |
| 2026-05-05 09:51 | 23.08434 | 72.90750 | 36806 ft | 536 kts | 84° |
| 2026-05-05 09:51 | 23.08878 | 72.98842 | 36794 ft | 537 kts | 84° |
| 2026-05-05 09:52 | 23.09317 | 73.06938 | 36806 ft | 538 kts | 84° |
| 2026-05-05 09:52 | 23.09753 | 73.15056 | 36803 ft | 538 kts | 84° |
| 2026-05-05 09:53 | 23.10183 | 73.23119 | 36799 ft | 538 kts | 84° |
| 2026-05-05 09:53 | 23.10611 | 73.31233 | 36801 ft | 538 kts | 84° |
| 2026-05-05 09:54 | 23.11035 | 73.39360 | 36794 ft | 539 kts | 84° |
| 2026-05-05 09:54 | 23.11454 | 73.47460 | 36791 ft | 539 kts | 85° |
| 2026-05-05 09:55 | 23.11870 | 73.55587 | 36805 ft | 539 kts | 85° |
| 2026-05-05 09:55 | 23.12281 | 73.63710 | 36805 ft | 539 kts | 85° |
| 2026-05-05 09:56 | 23.12690 | 73.71854 | 36806 ft | 540 kts | 85° |
| 2026-05-05 09:56 | 23.13094 | 73.80000 | 36816 ft | 540 kts | 85° |
| 2026-05-05 09:57 | 23.13495 | 73.88155 | 36826 ft | 540 kts | 85° |
| 2026-05-05 09:57 | 23.13891 | 73.96310 | 36828 ft | 541 kts | 85° |
| 2026-05-05 09:58 | 23.14283 | 74.04467 | 36817 ft | 541 kts | 85° |
| 2026-05-05 09:58 | 23.14672 | 74.12639 | 36836 ft | 542 kts | 85° |
| 2026-05-05 09:59 | 23.15057 | 74.20818 | 36837 ft | 542 kts | 85° |
| 2026-05-05 09:59 | 23.15438 | 74.29003 | 36850 ft | 542 kts | 85° |
| 2026-05-05 10:00 | 23.15796 | 74.37187 | 36860 ft | 543 kts | 86° |
| 2026-05-05 10:00 | 23.15947 | 74.45357 | 36851 ft | 545 kts | 87° |
| 2026-05-05 10:01 | 23.16088 | 74.53584 | 36863 ft | 545 kts | 87° |
| 2026-05-05 10:01 | 23.16249 | 74.61880 | 36868 ft | 546 kts | 87° |
| 2026-05-05 10:02 | 23.16383 | 74.68726 | 36880 ft | 546 kts | 87° |
| 2026-05-05 10:02 | 23.16543 | 74.76971 | 36878 ft | 546 kts | 87° |
| 2026-05-05 10:03 | 23.16722 | 74.86556 | 36890 ft | 545 kts | 87° |
| 2026-05-05 10:03 | 23.16847 | 74.93454 | 36887 ft | 545 kts | 87° |
| 2026-05-05 10:04 | 23.16992 | 75.01695 | 36885 ft | 545 kts | 87° |
| 2026-05-05 10:04 | 23.17133 | 75.09937 | 36878 ft | 546 kts | 87° |
| 2026-05-05 10:05 | 23.17270 | 75.18179 | 36881 ft | 546 kts | 87° |
| 2026-05-05 10:05 | 23.17403 | 75.26433 | 36890 ft | 547 kts | 87° |
| 2026-05-05 10:06 | 23.17531 | 75.34697 | 36892 ft | 547 kts | 87° |
| 2026-05-05 10:06 | 23.17655 | 75.42957 | 36913 ft | 547 kts | 87° |
| 2026-05-05 10:07 | 23.17776 | 75.51236 | 36903 ft | 549 kts | 87° |
| 2026-05-05 10:07 | 23.17892 | 75.59550 | 36909 ft | 549 kts | 87° |
| 2026-05-05 10:08 | 23.18004 | 75.67853 | 36915 ft | 550 kts | 87° |
| 2026-05-05 10:08 | 23.18110 | 75.76107 | 36918 ft | 550 kts | 87° |
| 2026-05-05 10:09 | 23.18214 | 75.84420 | 36919 ft | 551 kts | 88° |
| 2026-05-05 10:09 | 23.18313 | 75.92747 | 36920 ft | 551 kts | 88° |
| 2026-05-05 10:10 | 23.18465 | 76.01059 | 36918 ft | 550 kts | 83° |
| 2026-05-05 10:10 | 23.19128 | 76.09341 | 36919 ft | 549 kts | 83° |
| 2026-05-05 10:11 | 23.19778 | 76.17613 | 36909 ft | 550 kts | 83° |
| 2026-05-05 10:11 | 23.20100 | 76.21773 | 37109 ft | 553 kts | 83° |
| 2026-05-05 10:11 | 23.20420 | 76.25934 | 37608 ft | 551 kts | 83° |
| 2026-05-05 10:12 | 23.20738 | 76.30076 | 38121 ft | 549 kts | 83° |
| 2026-05-05 10:12 | 23.21053 | 76.34204 | 38602 ft | 547 kts | 83° |
| 2026-05-05 10:12 | 23.21368 | 76.38336 | 38855 ft | 550 kts | 83° |
| 2026-05-05 10:12 | 23.21682 | 76.42462 | 38905 ft | 544 kts | 83° |
| 2026-05-05 10:13 | 23.22298 | 76.50621 | 38916 ft | 542 kts | 83° |
| 2026-05-05 10:13 | 23.22914 | 76.58821 | 38909 ft | 544 kts | 83° |
| 2026-05-05 10:14 | 23.23525 | 76.67027 | 38905 ft | 544 kts | 83° |
| 2026-05-05 10:14 | 23.24133 | 76.75231 | 38909 ft | 544 kts | 83° |
| 2026-05-05 10:15 | 23.24736 | 76.83438 | 38907 ft | 545 kts | 83° |
| 2026-05-05 10:15 | 23.25334 | 76.91637 | 38908 ft | 545 kts | 83° |
| 2026-05-05 10:16 | 23.25930 | 76.99868 | 38895 ft | 546 kts | 83° |
| 2026-05-05 10:16 | 23.26520 | 77.08088 | 38889 ft | 546 kts | 83° |
| 2026-05-05 10:17 | 23.27106 | 77.16286 | 38879 ft | 546 kts | 83° |
| 2026-05-05 10:17 | 23.27690 | 77.24529 | 38863 ft | 547 kts | 84° |
| 2026-05-05 10:18 | 23.28238 | 77.32786 | 38852 ft | 548 kts | 86° |
| 2026-05-05 10:18 | 23.28021 | 77.41083 | 38852 ft | 549 kts | 91° |
| 2026-05-05 10:19 | 23.27682 | 77.49372 | 38869 ft | 549 kts | 91° |
| 2026-05-05 10:19 | 23.27344 | 77.57676 | 38876 ft | 549 kts | 91° |
| 2026-05-05 10:20 | 23.26997 | 77.65975 | 38885 ft | 550 kts | 91° |
| 2026-05-05 10:20 | 23.26643 | 77.74286 | 38892 ft | 550 kts | 91° |
| 2026-05-05 10:21 | 23.26284 | 77.82603 | 38906 ft | 550 kts | 91° |
| 2026-05-05 10:21 | 23.25922 | 77.90913 | 38902 ft | 550 kts | 91° |
| 2026-05-05 10:22 | 23.25555 | 77.99224 | 38893 ft | 550 kts | 91° |
| 2026-05-05 10:22 | 23.25187 | 78.07457 | 38885 ft | 549 kts | 91° |
| 2026-05-05 10:23 | 23.24812 | 78.15753 | 38880 ft | 549 kts | 91° |
| 2026-05-05 10:23 | 23.24433 | 78.24034 | 38882 ft | 548 kts | 92° |
| 2026-05-05 10:24 | 23.24050 | 78.32315 | 38866 ft | 548 kts | 92° |
| 2026-05-05 10:24 | 23.23664 | 78.40586 | 38859 ft | 548 kts | 92° |
| 2026-05-05 10:25 | 23.23272 | 78.48863 | 38858 ft | 548 kts | 92° |
| 2026-05-05 10:25 | 23.22877 | 78.57134 | 38866 ft | 548 kts | 92° |
| 2026-05-05 10:26 | 23.22475 | 78.65430 | 38862 ft | 549 kts | 92° |
| 2026-05-05 10:26 | 23.22071 | 78.73718 | 38852 ft | 549 kts | 92° |
| 2026-05-05 10:27 | 23.21869 | 78.82009 | 38842 ft | 549 kts | 89° |
| 2026-05-05 10:27 | 23.21807 | 78.90301 | 38849 ft | 549 kts | 89° |
| 2026-05-05 10:28 | 23.21700 | 78.98627 | 38838 ft | 550 kts | 90° |
| 2026-05-05 10:28 | 23.21571 | 79.06948 | 38846 ft | 550 kts | 90° |
| 2026-05-05 10:29 | 23.21436 | 79.15272 | 38835 ft | 551 kts | 90° |
| 2026-05-05 10:29 | 23.21297 | 79.23601 | 38833 ft | 551 kts | 90° |
| 2026-05-05 10:30 | 23.21153 | 79.31926 | 38828 ft | 551 kts | 90° |
| 2026-05-05 10:30 | 23.21006 | 79.40262 | 38831 ft | 551 kts | 90° |
| 2026-05-05 10:31 | 23.20854 | 79.48590 | 38827 ft | 551 kts | 90° |
| 2026-05-05 10:31 | 23.20697 | 79.56922 | 38827 ft | 551 kts | 90° |
| 2026-05-05 10:32 | 23.20394 | 79.65252 | 38815 ft | 551 kts | 92° |
| 2026-05-05 10:32 | 23.20009 | 79.73561 | 38817 ft | 551 kts | 92° |
| 2026-05-05 10:33 | 23.19643 | 79.81876 | 38824 ft | 550 kts | 92° |
| 2026-05-05 10:33 | 23.19287 | 79.90126 | 38827 ft | 550 kts | 92° |
| 2026-05-05 10:34 | 23.18923 | 79.98482 | 38828 ft | 550 kts | 92° |
| 2026-05-05 10:34 | 23.18558 | 80.06736 | 38832 ft | 550 kts | 92° |
| 2026-05-05 10:35 | 23.18142 | 80.15034 | 38832 ft | 550 kts | 93° |
| 2026-05-05 10:35 | 23.17704 | 80.23337 | 38829 ft | 550 kts | 93° |
| 2026-05-05 10:36 | 23.17269 | 80.31627 | 38829 ft | 549 kts | 93° |
| 2026-05-05 10:36 | 23.16832 | 80.39916 | 38825 ft | 549 kts | 93° |
| 2026-05-05 10:37 | 23.16391 | 80.48206 | 38818 ft | 549 kts | 93° |
| 2026-05-05 10:37 | 23.15945 | 80.56504 | 38827 ft | 549 kts | 93° |
| 2026-05-05 10:38 | 23.15496 | 80.64794 | 38821 ft | 549 kts | 93° |
| 2026-05-05 10:38 | 23.15042 | 80.73076 | 38839 ft | 548 kts | 93° |
| 2026-05-05 10:39 | 23.14589 | 80.81345 | 38825 ft | 548 kts | 93° |
| 2026-05-05 10:39 | 23.14142 | 80.89609 | 38825 ft | 548 kts | 93° |
| 2026-05-05 10:40 | 23.13692 | 80.97858 | 38835 ft | 547 kts | 94° |
| 2026-05-05 10:40 | 23.13237 | 81.06100 | 38831 ft | 546 kts | 94° |
| 2026-05-05 10:41 | 23.12778 | 81.14319 | 38825 ft | 545 kts | 94° |
| 2026-05-05 10:41 | 23.12316 | 81.22535 | 38817 ft | 544 kts | 94° |
| 2026-05-05 10:42 | 23.11613 | 81.34850 | 38801 ft | 546 kts | 94° |
| 2026-05-05 10:43 | 23.11138 | 81.43101 | 38817 ft | 547 kts | 94° |
| 2026-05-05 10:43 | 23.10659 | 81.51363 | 38826 ft | 549 kts | 94° |
| 2026-05-05 10:44 | 23.10173 | 81.59643 | 38835 ft | 550 kts | 94° |
| 2026-05-05 10:44 | 23.09682 | 81.67948 | 38844 ft | 551 kts | 94° |
| 2026-05-05 10:45 | 23.09186 | 81.76242 | 38847 ft | 551 kts | 94° |
| 2026-05-05 10:45 | 23.08686 | 81.84561 | 38840 ft | 551 kts | 94° |
| 2026-05-05 10:46 | 23.08267 | 81.91463 | 38845 ft | 551 kts | 94° |
| 2026-05-05 10:46 | 23.07758 | 81.99773 | 38832 ft | 551 kts | 94° |
| 2026-05-05 10:47 | 23.07246 | 82.08073 | 38822 ft | 550 kts | 94° |
| 2026-05-05 10:47 | 23.06731 | 82.16361 | 38820 ft | 550 kts | 94° |
| 2026-05-05 10:48 | 23.06330 | 82.24642 | 38822 ft | 549 kts | 92° |
| 2026-05-05 10:48 | 23.06003 | 82.32933 | 38819 ft | 549 kts | 92° |
| 2026-05-05 10:49 | 23.05650 | 82.41213 | 38806 ft | 549 kts | 93° |
| 2026-05-05 10:49 | 23.05284 | 82.49478 | 38825 ft | 548 kts | 93° |
| 2026-05-05 10:50 | 23.04913 | 82.57729 | 38821 ft | 548 kts | 93° |
| 2026-05-05 10:50 | 23.04539 | 82.65966 | 38825 ft | 547 kts | 93° |
| 2026-05-05 10:51 | 23.04159 | 82.74220 | 38834 ft | 547 kts | 93° |
| 2026-05-05 10:51 | 23.03776 | 82.82474 | 38832 ft | 547 kts | 94° |
| 2026-05-05 10:52 | 23.03388 | 82.90726 | 38843 ft | 547 kts | 94° |
| 2026-05-05 10:52 | 23.02996 | 82.98970 | 38846 ft | 547 kts | 94° |
| 2026-05-05 10:53 | 23.02600 | 83.07202 | 38858 ft | 547 kts | 94° |
| 2026-05-05 10:53 | 23.02200 | 83.15447 | 38859 ft | 546 kts | 94° |
| 2026-05-05 10:54 | 23.01797 | 83.23661 | 38864 ft | 547 kts | 94° |
| 2026-05-05 10:54 | 23.01386 | 83.31932 | 38877 ft | 547 kts | 94° |
| 2026-05-05 10:55 | 23.00975 | 83.40137 | 38891 ft | 548 kts | 94° |
| 2026-05-05 10:55 | 23.00557 | 83.48388 | 38909 ft | 548 kts | 94° |
| 2026-05-05 10:56 | 23.00135 | 83.56651 | 38913 ft | 548 kts | 95° |
| 2026-05-05 10:56 | 22.99707 | 83.64919 | 38927 ft | 548 kts | 94° |
| 2026-05-05 10:57 | 22.99275 | 83.73186 | 38923 ft | 549 kts | 95° |
| 2026-05-05 10:57 | 22.98839 | 83.81465 | 38935 ft | 549 kts | 95° |
| 2026-05-05 10:58 | 22.98399 | 83.89720 | 38939 ft | 547 kts | 94° |
| 2026-05-05 10:58 | 22.97959 | 83.97956 | 38943 ft | 546 kts | 95° |
| 2026-05-05 10:59 | 22.97511 | 84.06174 | 38936 ft | 545 kts | 95° |
| 2026-05-05 10:59 | 22.97061 | 84.14380 | 38932 ft | 544 kts | 95° |
| 2026-05-05 11:00 | 22.96478 | 84.22565 | 38923 ft | 544 kts | 96° |
| 2026-05-05 11:00 | 22.95864 | 84.30734 | 38922 ft | 543 kts | 96° |
| 2026-05-05 11:01 | 22.95262 | 84.38907 | 38916 ft | 543 kts | 96° |
| 2026-05-05 11:01 | 22.94663 | 84.47072 | 38916 ft | 544 kts | 96° |
| 2026-05-05 11:02 | 22.94058 | 84.55255 | 38909 ft | 544 kts | 96° |
| 2026-05-05 11:02 | 22.93450 | 84.63431 | 38907 ft | 544 kts | 96° |
| 2026-05-05 11:03 | 22.92838 | 84.71614 | 38913 ft | 544 kts | 97° |
| 2026-05-05 11:03 | 22.92221 | 84.79790 | 38915 ft | 543 kts | 97° |
| 2026-05-05 11:04 | 22.91604 | 84.87906 | 38909 ft | 543 kts | 97° |
| 2026-05-05 11:04 | 22.90976 | 84.96124 | 38907 ft | 543 kts | 97° |
| 2026-05-05 11:05 | 22.90352 | 85.04221 | 38907 ft | 543 kts | 97° |
| 2026-05-05 11:05 | 22.89719 | 85.12388 | 38900 ft | 543 kts | 97° |
| 2026-05-05 11:06 | 22.89087 | 85.20557 | 38899 ft | 543 kts | 97° |
| 2026-05-05 11:06 | 22.88456 | 85.28727 | 38904 ft | 544 kts | 97° |
| 2026-05-05 11:07 | 22.87821 | 85.36894 | 38903 ft | 544 kts | 97° |
| 2026-05-05 11:07 | 22.87181 | 85.45063 | 38894 ft | 544 kts | 97° |
| 2026-05-05 11:08 | 22.86536 | 85.53237 | 38900 ft | 544 kts | 97° |
| 2026-05-05 11:08 | 22.85885 | 85.61424 | 38884 ft | 545 kts | 97° |
| 2026-05-05 11:09 | 22.85231 | 85.69611 | 38892 ft | 546 kts | 97° |
| 2026-05-05 11:09 | 22.84571 | 85.77810 | 38885 ft | 546 kts | 97° |
| 2026-05-05 11:10 | 22.83907 | 85.86008 | 38871 ft | 545 kts | 97° |
| 2026-05-05 11:10 | 22.83241 | 85.94178 | 38853 ft | 545 kts | 97° |
| 2026-05-05 11:11 | 22.82567 | 86.02394 | 38842 ft | 546 kts | 97° |
| 2026-05-05 11:11 | 22.81890 | 86.10589 | 38832 ft | 545 kts | 97° |
| 2026-05-05 11:12 | 22.81214 | 86.18760 | 38834 ft | 545 kts | 97° |
| 2026-05-05 11:12 | 22.80758 | 86.26971 | 38859 ft | 546 kts | 95° |
| 2026-05-05 11:13 | 22.80362 | 86.35173 | 38853 ft | 546 kts | 95° |
| 2026-05-05 11:13 | 22.79930 | 86.43345 | 38854 ft | 546 kts | 96° |
| 2026-05-05 11:14 | 22.79479 | 86.51567 | 38865 ft | 546 kts | 96° |
| 2026-05-05 11:14 | 22.79024 | 86.59778 | 38854 ft | 547 kts | 96° |
| 2026-05-05 11:15 | 22.78566 | 86.67975 | 38845 ft | 547 kts | 96° |
| 2026-05-05 11:15 | 22.78102 | 86.76199 | 38851 ft | 547 kts | 96° |
| 2026-05-05 11:16 | 22.77634 | 86.84422 | 38840 ft | 547 kts | 96° |
| 2026-05-05 11:16 | 22.77162 | 86.92648 | 38841 ft | 547 kts | 96° |
| 2026-05-05 11:17 | 22.76685 | 87.00866 | 38839 ft | 546 kts | 96° |
| 2026-05-05 11:17 | 22.76205 | 87.09082 | 38840 ft | 546 kts | 96° |
| 2026-05-05 11:18 | 22.75720 | 87.17300 | 38813 ft | 546 kts | 96° |
| 2026-05-05 11:18 | 22.75232 | 87.25505 | 38829 ft | 546 kts | 96° |
| 2026-05-05 11:19 | 22.74739 | 87.33716 | 38822 ft | 546 kts | 96° |
| 2026-05-05 11:19 | 22.74242 | 87.41923 | 38827 ft | 546 kts | 96° |
| 2026-05-05 11:20 | 22.73742 | 87.50117 | 38829 ft | 546 kts | 96° |
| 2026-05-05 11:20 | 22.73237 | 87.58321 | 38829 ft | 546 kts | 96° |
| 2026-05-05 11:21 | 22.72728 | 87.66523 | 38828 ft | 546 kts | 96° |
| 2026-05-05 11:21 | 22.72214 | 87.74724 | 38834 ft | 545 kts | 96° |
| 2026-05-05 11:22 | 22.71697 | 87.82917 | 38832 ft | 545 kts | 96° |
| 2026-05-05 11:22 | 22.71176 | 87.91109 | 38830 ft | 545 kts | 96° |
| 2026-05-05 11:23 | 22.70654 | 87.99249 | 38829 ft | 545 kts | 96° |
| 2026-05-05 11:23 | 22.70125 | 88.07438 | 38832 ft | 545 kts | 96° |
| 2026-05-05 11:24 | 22.69591 | 88.15624 | 38835 ft | 544 kts | 96° |
| 2026-05-05 11:24 | 22.69055 | 88.23792 | 38832 ft | 544 kts | 96° |
| 2026-05-05 11:25 | 22.68514 | 88.31958 | 38828 ft | 544 kts | 96° |
| 2026-05-05 11:25 | 22.67773 | 88.40093 | 38826 ft | 541 kts | 104° |
| 2026-05-05 11:26 | 22.65385 | 88.47634 | 38816 ft | 532 kts | 121° |
| 2026-05-05 11:26 | 22.61394 | 88.54276 | 38831 ft | 526 kts | 130° |
| 2026-05-05 11:27 | 22.57133 | 88.60748 | 38833 ft | 526 kts | 129° |
| 2026-05-05 11:27 | 22.52889 | 88.67199 | 38832 ft | 526 kts | 130° |
| 2026-05-05 11:28 | 22.48642 | 88.73634 | 38834 ft | 526 kts | 130° |
| 2026-05-05 11:28 | 22.44394 | 88.80057 | 38823 ft | 525 kts | 129° |
| 2026-05-05 11:29 | 22.40144 | 88.86476 | 38829 ft | 524 kts | 129° |
| 2026-05-05 11:29 | 22.36615 | 88.91801 | 38836 ft | 524 kts | 129° |
| 2026-05-05 11:30 | 22.32374 | 88.98191 | 38835 ft | 524 kts | 129° |
| 2026-05-05 11:30 | 22.28168 | 89.04616 | 38831 ft | 524 kts | 127° |
| 2026-05-05 11:31 | 22.24160 | 89.11202 | 38830 ft | 525 kts | 127° |
| 2026-05-05 11:31 | 22.20142 | 89.17786 | 38829 ft | 525 kts | 127° |
| 2026-05-05 11:32 | 22.16098 | 89.24348 | 38824 ft | 525 kts | 127° |
| 2026-05-05 11:32 | 22.12048 | 89.30900 | 38836 ft | 525 kts | 127° |
| 2026-05-05 11:33 | 22.08019 | 89.37409 | 38840 ft | 525 kts | 127° |
| 2026-05-05 11:33 | 22.03966 | 89.43950 | 38838 ft | 525 kts | 127° |
| 2026-05-05 11:34 | 21.99909 | 89.50490 | 38834 ft | 525 kts | 127° |
| 2026-05-05 11:34 | 21.95847 | 89.57029 | 38836 ft | 525 kts | 127° |
| 2026-05-05 11:35 | 21.91788 | 89.63557 | 38836 ft | 524 kts | 127° |
| 2026-05-05 11:35 | 21.87698 | 89.70125 | 38833 ft | 524 kts | 127° |
| 2026-05-05 11:36 | 21.83636 | 89.76642 | 38836 ft | 524 kts | 127° |
| 2026-05-05 11:36 | 21.79598 | 89.83110 | 38827 ft | 524 kts | 127° |
| 2026-05-05 11:37 | 21.75532 | 89.89619 | 38839 ft | 524 kts | 127° |
| 2026-05-05 11:37 | 21.71462 | 89.96123 | 38833 ft | 524 kts | 127° |
| 2026-05-05 11:38 | 21.67394 | 90.02618 | 38831 ft | 524 kts | 127° |
| 2026-05-05 11:38 | 21.63322 | 90.09111 | 38834 ft | 524 kts | 127° |
| 2026-05-05 11:39 | 21.59250 | 90.15596 | 38836 ft | 524 kts | 127° |
| 2026-05-05 11:39 | 21.55170 | 90.22087 | 38837 ft | 524 kts | 127° |
| 2026-05-05 11:40 | 21.51085 | 90.28579 | 38838 ft | 524 kts | 127° |
| 2026-05-05 11:40 | 21.47003 | 90.35058 | 38828 ft | 524 kts | 127° |
| 2026-05-05 11:41 | 21.42915 | 90.41537 | 38837 ft | 524 kts | 127° |
| 2026-05-05 11:41 | 21.38829 | 90.48007 | 38843 ft | 524 kts | 127° |
| 2026-05-05 11:42 | 21.34757 | 90.54450 | 38847 ft | 524 kts | 127° |
| 2026-05-05 11:42 | 21.30644 | 90.60950 | 38842 ft | 524 kts | 127° |
| 2026-05-05 11:43 | 21.26551 | 90.67416 | 38841 ft | 524 kts | 127° |
| 2026-05-05 11:43 | 21.22458 | 90.73875 | 38844 ft | 524 kts | 127° |
| 2026-05-05 11:44 | 21.18360 | 90.80334 | 38847 ft | 524 kts | 127° |
| 2026-05-05 11:44 | 21.14261 | 90.86787 | 38849 ft | 523 kts | 127° |
| 2026-05-05 11:45 | 21.10170 | 90.93220 | 38853 ft | 522 kts | 127° |
| 2026-05-05 11:45 | 21.06078 | 90.99646 | 38851 ft | 522 kts | 127° |
| 2026-05-05 11:46 | 21.01991 | 91.06059 | 38853 ft | 521 kts | 127° |
| 2026-05-05 11:46 | 20.97902 | 91.12466 | 38848 ft | 521 kts | 127° |
| 2026-05-05 11:47 | 20.93837 | 91.18828 | 38846 ft | 521 kts | 127° |
| 2026-05-05 11:47 | 20.89750 | 91.25218 | 38843 ft | 520 kts | 127° |
| 2026-05-05 11:48 | 20.83616 | 91.34796 | 38842 ft | 520 kts | 127° |
| 2026-05-05 11:48 | 20.79526 | 91.41171 | 38826 ft | 520 kts | 127° |
| 2026-05-05 11:49 | 20.75441 | 91.47534 | 38840 ft | 520 kts | 127° |
| 2026-05-05 11:49 | 20.71343 | 91.53909 | 38840 ft | 520 kts | 127° |
| 2026-05-05 11:50 | 20.67246 | 91.60275 | 38845 ft | 520 kts | 127° |
| 2026-05-05 11:50 | 20.63155 | 91.66626 | 38847 ft | 521 kts | 127° |
| 2026-05-05 11:51 | 20.59036 | 91.73012 | 38850 ft | 521 kts | 127° |
| 2026-05-05 11:51 | 20.54930 | 91.79372 | 38851 ft | 521 kts | 127° |
| 2026-05-05 11:52 | 20.50841 | 91.85697 | 38852 ft | 521 kts | 127° |
| 2026-05-05 11:52 | 20.46723 | 91.92061 | 38848 ft | 521 kts | 127° |
| 2026-05-05 11:53 | 20.42612 | 91.98408 | 38846 ft | 521 kts | 127° |
| 2026-05-05 11:53 | 20.38437 | 92.04789 | 38841 ft | 521 kts | 127° |
| 2026-05-05 11:54 | 20.34263 | 92.11091 | 38844 ft | 521 kts | 127° |
| 2026-05-05 11:54 | 20.30120 | 92.17357 | 38844 ft | 521 kts | 127° |
| 2026-05-05 11:55 | 20.25948 | 92.23668 | 38842 ft | 521 kts | 127° |
| 2026-05-05 11:55 | 20.21774 | 92.29973 | 38841 ft | 521 kts | 127° |
| 2026-05-05 11:56 | 20.17598 | 92.36274 | 38844 ft | 521 kts | 127° |
| 2026-05-05 11:56 | 20.13421 | 92.42571 | 38841 ft | 521 kts | 127° |
| 2026-05-05 11:57 | 20.09241 | 92.48864 | 38830 ft | 521 kts | 127° |
| 2026-05-05 11:57 | 20.05060 | 92.55154 | 38833 ft | 521 kts | 127° |
| 2026-05-05 11:58 | 20.00873 | 92.61444 | 38852 ft | 521 kts | 127° |
| 2026-05-05 11:58 | 19.96684 | 92.67731 | 38839 ft | 521 kts | 127° |
| 2026-05-05 11:59 | 19.92504 | 92.73998 | 38852 ft | 520 kts | 127° |
| 2026-05-05 11:59 | 19.88306 | 92.80287 | 38848 ft | 520 kts | 127° |
| 2026-05-05 12:00 | 19.84121 | 92.86548 | 38842 ft | 520 kts | 127° |
| 2026-05-05 12:00 | 19.79960 | 92.92766 | 38840 ft | 520 kts | 127° |
| 2026-05-05 12:01 | 19.75742 | 92.99065 | 38845 ft | 519 kts | 127° |
| 2026-05-05 12:01 | 19.71558 | 93.05305 | 38832 ft | 519 kts | 127° |
| 2026-05-05 12:02 | 19.67370 | 93.11545 | 38853 ft | 518 kts | 127° |
| 2026-05-05 12:02 | 19.63194 | 93.17760 | 38849 ft | 517 kts | 127° |
| 2026-05-05 12:03 | 19.59013 | 93.23976 | 38843 ft | 517 kts | 127° |
| 2026-05-05 12:03 | 19.54864 | 93.30139 | 38839 ft | 517 kts | 127° |
| 2026-05-05 12:04 | 19.50690 | 93.36332 | 38833 ft | 516 kts | 127° |
| 2026-05-05 12:04 | 19.46509 | 93.42530 | 38833 ft | 516 kts | 127° |
| 2026-05-05 12:05 | 19.42333 | 93.48713 | 38834 ft | 516 kts | 127° |
| 2026-05-05 12:05 | 19.38154 | 93.54896 | 38840 ft | 516 kts | 127° |
| 2026-05-05 12:06 | 19.33980 | 93.61064 | 38838 ft | 516 kts | 127° |
| 2026-05-05 12:06 | 19.29797 | 93.67238 | 38837 ft | 515 kts | 127° |
| 2026-05-05 12:07 | 19.25620 | 93.73400 | 38830 ft | 515 kts | 127° |
| 2026-05-05 12:07 | 19.21438 | 93.79560 | 38835 ft | 515 kts | 127° |
| 2026-05-05 12:08 | 19.17256 | 93.85717 | 38841 ft | 515 kts | 127° |
| 2026-05-05 12:08 | 19.13074 | 93.91865 | 38837 ft | 514 kts | 127° |
| 2026-05-05 12:09 | 19.08892 | 93.98007 | 38841 ft | 514 kts | 127° |
| 2026-05-05 12:09 | 19.04747 | 94.04091 | 38835 ft | 514 kts | 127° |
| 2026-05-05 12:10 | 19.00535 | 94.10265 | 38838 ft | 514 kts | 127° |
| 2026-05-05 12:10 | 18.96376 | 94.16357 | 38838 ft | 514 kts | 127° |
| 2026-05-05 12:11 | 18.92159 | 94.22527 | 38835 ft | 515 kts | 127° |
| 2026-05-05 12:11 | 18.87989 | 94.28623 | 38853 ft | 515 kts | 127° |
| 2026-05-05 12:12 | 18.83756 | 94.34803 | 38854 ft | 516 kts | 127° |
| 2026-05-05 12:12 | 18.79577 | 94.40900 | 38857 ft | 517 kts | 127° |
| 2026-05-05 12:13 | 18.75361 | 94.47044 | 38871 ft | 517 kts | 127° |
| 2026-05-05 12:13 | 18.71136 | 94.53195 | 38873 ft | 517 kts | 127° |
| 2026-05-05 12:14 | 18.66911 | 94.59342 | 38884 ft | 517 kts | 127° |
| 2026-05-05 12:14 | 18.63401 | 94.64444 | 38881 ft | 517 kts | 127° |
| 2026-05-05 12:15 | 18.59175 | 94.70583 | 38881 ft | 517 kts | 127° |
| 2026-05-05 12:15 | 18.55009 | 94.76749 | 38873 ft | 517 kts | 126° |
| 2026-05-05 12:16 | 18.50938 | 94.83009 | 38870 ft | 517 kts | 126° |
| 2026-05-05 12:16 | 18.46863 | 94.89240 | 38851 ft | 516 kts | 126° |
| 2026-05-05 12:17 | 18.42775 | 94.95459 | 38850 ft | 516 kts | 126° |
| 2026-05-05 12:17 | 18.38681 | 95.01677 | 38846 ft | 516 kts | 126° |
| 2026-05-05 12:18 | 18.34594 | 95.07878 | 38827 ft | 516 kts | 126° |
| 2026-05-05 12:18 | 18.30496 | 95.14090 | 38826 ft | 516 kts | 126° |
| 2026-05-05 12:19 | 18.26273 | 95.20207 | 38813 ft | 516 kts | 128° |
| 2026-05-05 12:19 | 18.21944 | 95.26227 | 38820 ft | 516 kts | 128° |
| 2026-05-05 12:20 | 18.17636 | 95.32267 | 38820 ft | 517 kts | 128° |
| 2026-05-05 12:20 | 18.13344 | 95.38307 | 38816 ft | 514 kts | 128° |
| 2026-05-05 12:21 | 18.09065 | 95.44325 | 38816 ft | 514 kts | 128° |
| 2026-05-05 12:21 | 18.04780 | 95.50346 | 38817 ft | 515 kts | 128° |
| 2026-05-05 12:22 | 18.00486 | 95.56373 | 38820 ft | 515 kts | 128° |
| 2026-05-05 12:22 | 17.96193 | 95.62395 | 38829 ft | 515 kts | 128° |
| 2026-05-05 12:23 | 17.91919 | 95.68384 | 38830 ft | 516 kts | 128° |
| 2026-05-05 12:23 | 17.87617 | 95.74407 | 38831 ft | 515 kts | 128° |
| 2026-05-05 12:24 | 17.83320 | 95.80416 | 38845 ft | 515 kts | 128° |
| 2026-05-05 12:24 | 17.79022 | 95.86423 | 38836 ft | 514 kts | 128° |
| 2026-05-05 12:25 | 17.74722 | 95.92426 | 38836 ft | 514 kts | 128° |
| 2026-05-05 12:25 | 17.70427 | 95.98416 | 38835 ft | 514 kts | 128° |
| 2026-05-05 12:26 | 17.66131 | 96.04403 | 38834 ft | 513 kts | 128° |
| 2026-05-05 12:26 | 17.61842 | 96.10376 | 38860 ft | 512 kts | 127° |
| 2026-05-05 12:27 | 17.57555 | 96.16339 | 38839 ft | 512 kts | 127° |
| 2026-05-05 12:27 | 17.53270 | 96.22294 | 38837 ft | 511 kts | 127° |
| 2026-05-05 12:28 | 17.48984 | 96.28245 | 38834 ft | 511 kts | 127° |
| 2026-05-05 12:28 | 17.44710 | 96.34176 | 38832 ft | 510 kts | 127° |
| 2026-05-05 12:29 | 17.40431 | 96.40107 | 38824 ft | 510 kts | 127° |
| 2026-05-05 12:29 | 17.36151 | 96.46035 | 38823 ft | 510 kts | 127° |
| 2026-05-05 12:30 | 17.31887 | 96.51936 | 38822 ft | 509 kts | 127° |
| 2026-05-05 12:30 | 17.27568 | 96.57818 | 38826 ft | 509 kts | 128° |
| 2026-05-05 12:31 | 17.23221 | 96.63680 | 38826 ft | 509 kts | 128° |
| 2026-05-05 12:31 | 17.18888 | 96.69533 | 38826 ft | 509 kts | 128° |
| 2026-05-05 12:32 | 17.14556 | 96.75387 | 38824 ft | 508 kts | 128° |
| 2026-05-05 12:32 | 17.10227 | 96.81232 | 38823 ft | 508 kts | 128° |
| 2026-05-05 12:33 | 17.05902 | 96.87068 | 38833 ft | 508 kts | 128° |
| 2026-05-05 12:33 | 17.01573 | 96.92903 | 38832 ft | 508 kts | 128° |
| 2026-05-05 12:34 | 16.97241 | 96.98737 | 38829 ft | 508 kts | 128° |
| 2026-05-05 12:34 | 16.92910 | 97.04565 | 38828 ft | 508 kts | 128° |
| 2026-05-05 12:35 | 16.88610 | 97.10347 | 38829 ft | 508 kts | 128° |
| 2026-05-05 12:35 | 16.84278 | 97.16168 | 38823 ft | 508 kts | 128° |
| 2026-05-05 12:36 | 16.79939 | 97.21991 | 38826 ft | 508 kts | 128° |
| 2026-05-05 12:36 | 16.75602 | 97.27808 | 38824 ft | 508 kts | 128° |
| 2026-05-05 12:37 | 16.71262 | 97.33625 | 38827 ft | 508 kts | 128° |
| 2026-05-05 12:37 | 16.66917 | 97.39443 | 38827 ft | 508 kts | 128° |
| 2026-05-05 12:38 | 16.62574 | 97.45252 | 38830 ft | 508 kts | 128° |
| 2026-05-05 12:38 | 16.58223 | 97.51070 | 38831 ft | 509 kts | 128° |
| 2026-05-05 12:39 | 16.53865 | 97.56889 | 38831 ft | 509 kts | 128° |
| 2026-05-05 12:39 | 16.49512 | 97.62699 | 38845 ft | 509 kts | 128° |
| 2026-05-05 12:40 | 16.45154 | 97.68511 | 38844 ft | 508 kts | 128° |
| 2026-05-05 12:40 | 16.40800 | 97.74311 | 38843 ft | 508 kts | 128° |
| 2026-05-05 12:41 | 16.36260 | 97.79936 | 38831 ft | 508 kts | 135° |
| 2026-05-05 12:41 | 16.31008 | 97.84854 | 38834 ft | 507 kts | 140° |
| 2026-05-05 12:42 | 16.25672 | 97.89652 | 38836 ft | 507 kts | 139° |
| 2026-05-05 12:42 | 16.20334 | 97.94460 | 38846 ft | 507 kts | 139° |
| 2026-05-05 12:43 | 16.15014 | 97.99245 | 38853 ft | 507 kts | 139° |
| 2026-05-05 12:43 | 16.09679 | 98.04038 | 38847 ft | 506 kts | 139° |
| 2026-05-05 12:44 | 16.04346 | 98.08826 | 38851 ft | 506 kts | 139° |
| 2026-05-05 12:44 | 15.99065 | 98.13563 | 38857 ft | 506 kts | 139° |
| 2026-05-05 12:45 | 15.93734 | 98.18342 | 38857 ft | 506 kts | 139° |
| 2026-05-05 12:45 | 15.88401 | 98.23119 | 38867 ft | 506 kts | 139° |
| 2026-05-05 12:46 | 15.83068 | 98.27893 | 38861 ft | 506 kts | 139° |
| 2026-05-05 12:46 | 15.77729 | 98.32669 | 38863 ft | 507 kts | 139° |
| 2026-05-05 12:47 | 15.72394 | 98.37437 | 38886 ft | 505 kts | 139° |
| 2026-05-05 12:47 | 15.67072 | 98.42191 | 38884 ft | 505 kts | 139° |
| 2026-05-05 12:48 | 15.61747 | 98.46944 | 38893 ft | 505 kts | 139° |
| 2026-05-05 12:48 | 15.56421 | 98.51694 | 38906 ft | 505 kts | 139° |
| 2026-05-05 12:49 | 15.51085 | 98.56450 | 38905 ft | 505 kts | 139° |
| 2026-05-05 12:49 | 15.46122 | 98.61587 | 38906 ft | 505 kts | 129° |
| 2026-05-05 12:50 | 15.41728 | 98.67240 | 38915 ft | 505 kts | 129° |
| 2026-05-05 12:50 | 15.37286 | 98.72914 | 38921 ft | 505 kts | 129° |
| 2026-05-05 12:51 | 15.32851 | 98.78572 | 38930 ft | 505 kts | 129° |
| 2026-05-05 12:51 | 15.28422 | 98.84222 | 38928 ft | 505 kts | 129° |
| 2026-05-05 12:52 | 15.23998 | 98.89861 | 38928 ft | 504 kts | 129° |
| 2026-05-05 12:52 | 15.19601 | 98.95463 | 38921 ft | 504 kts | 129° |
| 2026-05-05 12:53 | 15.15146 | 99.01134 | 38913 ft | 504 kts | 129° |
| 2026-05-05 12:53 | 15.10780 | 99.06688 | 38913 ft | 504 kts | 129° |
| 2026-05-05 12:54 | 15.06360 | 99.12306 | 38648 ft | 501 kts | 129° |
| 2026-05-05 12:54 | 15.04171 | 99.15088 | 38295 ft | 498 kts | 129° |
| 2026-05-05 12:54 | 15.01976 | 99.17874 | 37514 ft | 500 kts | 129° |
| 2026-05-05 12:55 | 14.99775 | 99.20668 | 36596 ft | 504 kts | 129° |
| 2026-05-05 12:55 | 14.97551 | 99.23490 | 35561 ft | 510 kts | 129° |
| 2026-05-05 12:55 | 14.95300 | 99.26347 | 34643 ft | 514 kts | 129° |
| 2026-05-05 12:55 | 14.93037 | 99.29217 | 33911 ft | 513 kts | 129° |
| 2026-05-05 12:56 | 14.90796 | 99.32058 | 33313 ft | 507 kts | 129° |
| 2026-05-05 12:56 | 14.88584 | 99.34861 | 32778 ft | 500 kts | 129° |
| 2026-05-05 12:56 | 14.86402 | 99.37626 | 32191 ft | 494 kts | 129° |
| 2026-05-05 12:56 | 14.84238 | 99.40367 | 31620 ft | 490 kts | 129° |
| 2026-05-05 12:57 | 14.82088 | 99.43088 | 31026 ft | 486 kts | 129° |
| 2026-05-05 12:57 | 14.79964 | 99.45777 | 30448 ft | 482 kts | 129° |
| 2026-05-05 12:57 | 14.77852 | 99.48450 | 29867 ft | 478 kts | 129° |
| 2026-05-05 12:57 | 14.75758 | 99.51097 | 29258 ft | 473 kts | 129° |
| 2026-05-05 12:58 | 14.74382 | 99.52837 | 28892 ft | 470 kts | 129° |
| 2026-05-05 12:58 | 14.72299 | 99.55470 | 28312 ft | 464 kts | 129° |
| 2026-05-05 12:58 | 14.70299 | 99.57998 | 27764 ft | 459 kts | 129° |
| 2026-05-05 12:58 | 14.68287 | 99.60540 | 27208 ft | 455 kts | 129° |
| 2026-05-05 12:59 | 14.66295 | 99.63056 | 26663 ft | 451 kts | 129° |
| 2026-05-05 12:59 | 14.64320 | 99.65549 | 26112 ft | 447 kts | 129° |
| 2026-05-05 12:59 | 14.62361 | 99.68022 | 25566 ft | 443 kts | 129° |
| 2026-05-05 13:00 | 14.58492 | 99.72903 | 24477 ft | 436 kts | 129° |
| 2026-05-05 13:00 | 14.56578 | 99.75316 | 23956 ft | 433 kts | 129° |
| 2026-05-05 13:01 | 14.50899 | 99.82474 | 22275 ft | 421 kts | 129° |
| 2026-05-05 13:01 | 14.49053 | 99.84797 | 21739 ft | 417 kts | 129° |
| 2026-05-05 13:01 | 14.47227 | 99.87097 | 21218 ft | 412 kts | 129° |
| 2026-05-05 13:01 | 14.45506 | 99.89423 | 20695 ft | 408 kts | 122° |
| 2026-05-05 13:02 | 14.44163 | 99.92001 | 20173 ft | 404 kts | 112° |
| 2026-05-05 13:02 | 14.43262 | 99.94724 | 19668 ft | 400 kts | 103° |
| 2026-05-05 13:02 | 14.42604 | 99.97497 | 19145 ft | 396 kts | 103° |
| 2026-05-05 13:02 | 14.41927 | 100.00244 | 18644 ft | 394 kts | 103° |
| 2026-05-05 13:03 | 14.41244 | 100.02968 | 18121 ft | 391 kts | 104° |
| 2026-05-05 13:03 | 14.40569 | 100.05658 | 17664 ft | 386 kts | 103° |
| 2026-05-05 13:03 | 14.39902 | 100.08317 | 17447 ft | 377 kts | 104° |
| 2026-05-05 13:03 | 14.39254 | 100.10911 | 17220 ft | 374 kts | 104° |
| 2026-05-05 13:04 | 14.38606 | 100.13504 | 16928 ft | 373 kts | 103° |
| 2026-05-05 13:04 | 14.37961 | 100.16086 | 16633 ft | 371 kts | 103° |
| 2026-05-05 13:04 | 14.37318 | 100.18660 | 16342 ft | 368 kts | 104° |
| 2026-05-05 13:04 | 14.36681 | 100.21210 | 16038 ft | 366 kts | 104° |
| 2026-05-05 13:05 | 14.36047 | 100.23743 | 15748 ft | 364 kts | 104° |
| 2026-05-05 13:05 | 14.35418 | 100.26255 | 15450 ft | 362 kts | 104° |
| 2026-05-05 13:05 | 14.34798 | 100.28730 | 15160 ft | 360 kts | 104° |
| 2026-05-05 13:05 | 14.34176 | 100.31214 | 14887 ft | 357 kts | 104° |
| 2026-05-05 13:06 | 14.33558 | 100.33678 | 14607 ft | 355 kts | 103° |
| 2026-05-05 13:06 | 14.32936 | 100.36158 | 14457 ft | 347 kts | 104° |
| 2026-05-05 13:06 | 14.32343 | 100.38520 | 14282 ft | 332 kts | 103° |
| 2026-05-05 13:06 | 14.31778 | 100.40769 | 14089 ft | 317 kts | 103° |
| 2026-05-05 13:07 | 14.31237 | 100.42926 | 13583 ft | 317 kts | 104° |
| 2026-05-05 13:07 | 14.30682 | 100.45138 | 13159 ft | 315 kts | 104° |
| 2026-05-05 13:07 | 14.30137 | 100.47309 | 12985 ft | 311 kts | 104° |
| 2026-05-05 13:07 | 14.29598 | 100.49452 | 12754 ft | 307 kts | 103° |
| 2026-05-05 13:08 | 14.29064 | 100.51578 | 12548 ft | 304 kts | 103° |
| 2026-05-05 13:08 | 14.28533 | 100.53692 | 12389 ft | 306 kts | 104° |
| 2026-05-05 13:08 | 14.27998 | 100.55815 | 12159 ft | 305 kts | 104° |
| 2026-05-05 13:08 | 14.27467 | 100.57926 | 11913 ft | 304 kts | 104° |
| 2026-05-05 13:09 | 14.26939 | 100.60025 | 11686 ft | 302 kts | 104° |
| 2026-05-05 13:09 | 14.26410 | 100.62124 | 11435 ft | 302 kts | 105° |
| 2026-05-05 13:09 | 14.25600 | 100.64087 | 11194 ft | 300 kts | 126° |
| 2026-05-05 13:09 | 14.24086 | 100.65535 | 10985 ft | 297 kts | 149° |
| 2026-05-05 13:10 | 14.22144 | 100.66217 | 10597 ft | 298 kts | 174° |
| 2026-05-05 13:10 | 14.20096 | 100.66012 | 10224 ft | 297 kts | 194° |
| 2026-05-05 13:10 | 14.18112 | 100.65426 | 9869 ft | 296 kts | 195° |
| 2026-05-05 13:10 | 14.16143 | 100.64833 | 9482 ft | 294 kts | 195° |
| 2026-05-05 13:11 | 14.14177 | 100.64269 | 9093 ft | 292 kts | 194° |
| 2026-05-05 13:11 | 14.12218 | 100.63732 | 8701 ft | 291 kts | 194° |
| 2026-05-05 13:11 | 14.10264 | 100.63211 | 8305 ft | 289 kts | 193° |
| 2026-05-05 13:11 | 14.08328 | 100.62700 | 8044 ft | 282 kts | 193° |
| 2026-05-05 13:12 | 14.06477 | 100.62214 | 7867 ft | 267 kts | 193° |
| 2026-05-05 13:12 | 14.04715 | 100.61750 | 7625 ft | 257 kts | 193° |
| 2026-05-05 13:12 | 14.03017 | 100.61304 | 7346 ft | 253 kts | 193° |
| 2026-05-05 13:12 | 14.01268 | 100.61067 | 7089 ft | 251 kts | 171° |
| 2026-05-05 13:13 | 13.99690 | 100.61680 | 6865 ft | 246 kts | 142° |
| 2026-05-05 13:13 | 13.98615 | 100.63036 | 6566 ft | 246 kts | 112° |
| 2026-05-05 13:13 | 13.98354 | 100.64773 | 6177 ft | 253 kts | 82° |
| 2026-05-05 13:13 | 13.98949 | 100.66440 | 6026 ft | 247 kts | 60° |
| 2026-05-05 13:14 | 13.99900 | 100.67876 | 5934 ft | 245 kts | 53° |
| 2026-05-05 13:14 | 14.00938 | 100.69247 | 5927 ft | 242 kts | 52° |
| 2026-05-05 13:14 | 14.01976 | 100.70618 | 5927 ft | 244 kts | 53° |
| 2026-05-05 13:14 | 14.02999 | 100.72012 | 5927 ft | 244 kts | 54° |
| 2026-05-05 13:15 | 14.03945 | 100.73453 | 5883 ft | 245 kts | 67° |
| 2026-05-05 13:15 | 14.04239 | 100.75161 | 5755 ft | 245 kts | 96° |
| 2026-05-05 13:15 | 14.03850 | 100.76871 | 5456 ft | 246 kts | 106° |
| 2026-05-05 13:15 | 14.03352 | 100.78541 | 5277 ft | 241 kts | 107° |
| 2026-05-05 13:16 | 14.02864 | 100.80182 | 5049 ft | 239 kts | 107° |
| 2026-05-05 13:16 | 14.02396 | 100.81806 | 4801 ft | 238 kts | 108° |
| 2026-05-05 13:16 | 14.01534 | 100.83251 | 4543 ft | 239 kts | 138° |
| 2026-05-05 13:16 | 14.00078 | 100.84037 | 4272 ft | 239 kts | 168° |
| 2026-05-05 13:17 | 13.98431 | 100.83960 | 4015 ft | 240 kts | 193° |
| 2026-05-05 13:17 | 13.96821 | 100.83496 | 3748 ft | 240 kts | 195° |
| 2026-05-05 13:17 | 13.95215 | 100.83022 | 3493 ft | 239 kts | 194° |
| 2026-05-05 13:17 | 13.93613 | 100.82572 | 3349 ft | 239 kts | 193° |
| 2026-05-05 13:18 | 13.92025 | 100.82147 | 3201 ft | 233 kts | 193° |
| 2026-05-05 13:18 | 13.90472 | 100.81735 | 3047 ft | 228 kts | 193° |
| 2026-05-05 13:18 | 13.88953 | 100.81333 | 2900 ft | 223 kts | 193° |
| 2026-05-05 13:18 | 13.87485 | 100.80945 | 2776 ft | 214 kts | 192° |
| 2026-05-05 13:19 | 13.86056 | 100.80567 | 2630 ft | 204 kts | 193° |
| 2026-05-05 13:19 | 13.84748 | 100.80220 | 2496 ft | 192 kts | 192° |
| 2026-05-05 13:19 | 13.83450 | 100.79878 | 2499 ft | 191 kts | 192° |
| 2026-05-05 13:19 | 13.82160 | 100.79536 | 2489 ft | 191 kts | 192° |
| 2026-05-05 13:20 | 13.80920 | 100.79208 | 2265 ft | 181 kts | 192° |
| 2026-05-05 13:20 | 13.79734 | 100.78894 | 2045 ft | 168 kts | 192° |
| 2026-05-05 13:20 | 13.78610 | 100.78597 | 1829 ft | 162 kts | 192° |
| 2026-05-05 13:20 | 13.77538 | 100.78314 | 1624 ft | 156 kts | 192° |
| 2026-05-05 13:21 | 13.76517 | 100.78044 | 1424 ft | 148 kts | 192° |
| 2026-05-05 13:21 | 13.75522 | 100.77781 | 1233 ft | 145 kts | 192° |
| 2026-05-05 13:21 | 13.74545 | 100.77524 | 1038 ft | 145 kts | 193° |
| 2026-05-05 13:21 | 13.73570 | 100.77259 | 875 ft | 144 kts | 193° |
| 2026-05-05 13:22 | 13.72613 | 100.76996 | 703 ft | 141 kts | 193° |
| 2026-05-05 13:22 | 13.71658 | 100.76751 | 526 ft | 141 kts | 192° |
| 2026-05-05 13:22 | 13.70714 | 100.76508 | 358 ft | 139 kts | 194° |
| 2026-05-05 13:22 | 13.69780 | 100.76266 | 175 ft | 138 kts | 194° |
| 2026-05-05 13:23 | 13.68859 | 100.76022 | 28 ft | 135 kts | 193° |
| 2026-05-05 13:23 | 13.68087 | 100.75820 | 19 ft | 92 kts | 194° |
| 2026-05-05 13:23 | 13.67576 | 100.75688 | 16 ft | 53 kts | 194° |
| 2026-05-05 13:23 | 13.67337 | 100.75620 | 22 ft | 26 kts | 200° |
| 2026-05-05 13:24 | 13.67213 | 100.75558 | 18 ft | 14 kts | 212° |
| 2026-05-05 13:24 | 13.67135 | 100.75490 | 22 ft | 14 kts | 224° |
| 2026-05-05 13:24 | 13.67092 | 100.75428 | 21 ft | 9 kts | 266° |
| 2026-05-05 13:24 | 13.67125 | 100.75384 | 21 ft | 9 kts | 350° |
| 2026-05-05 13:25 | 13.67211 | 100.75398 | 20 ft | 16 kts | 15° |
| 2026-05-05 13:25 | 13.67337 | 100.75431 | 20 ft | 21 kts | 14° |
| 2026-05-05 13:25 | 13.67460 | 100.75463 | 22 ft | 16 kts | 14° |
| 2026-05-05 13:25 | 13.67587 | 100.75496 | 19 ft | 21 kts | 14° |
| 2026-05-05 13:26 | 13.67700 | 100.75525 | 20 ft | 13 kts | 14° |
| 2026-05-05 13:26 | 13.67762 | 100.75500 | 19 ft | 11 kts | 298° |
| 2026-05-05 13:26 | 13.67787 | 100.75411 | 20 ft | 15 kts | 283° |
| 2026-05-05 13:26 | 13.67815 | 100.75291 | 21 ft | 18 kts | 284° |
| 2026-05-05 13:27 | 13.67850 | 100.75158 | 19 ft | 21 kts | 284° |
| 2026-05-05 13:27 | 13.67881 | 100.75033 | 20 ft | 13 kts | 284° |
| 2026-05-05 13:27 | 13.67900 | 100.74976 | 19 ft | 7 kts | 320° |
| 2026-05-05 13:27 | 13.67958 | 100.74969 | 19 ft | 11 kts | 10° |
| 2026-05-05 13:28 | 13.68002 | 100.74939 | 21 ft | 10 kts | 293° |
| 2026-05-05 13:28 | 13.68024 | 100.74859 | 21 ft | 12 kts | 284° |
| 2026-05-05 13:28 | 13.68036 | 100.74817 | 21 ft | 2 kts | 315° |
| 2026-05-05 13:28 | 13.68060 | 100.74807 | 18 ft | 6 kts | 355° |
| 2026-05-05 13:29 | 13.68090 | 100.74810 | 21 ft | 4 kts | 14° |
| 2026-05-05 13:29 | 13.68116 | 100.74817 | 19 ft | 2 kts | 14° |
| 2026-05-05 13:29 | 13.68127 | 100.74820 | 19 ft | 2 kts | 14° |